• Join FlightAware (Why Join?)
  • Login
  • US Flag 
07:50AM EDT


 

Airport Tracker/Info


-or-


 

Live Flight TrackerFlight Track Log ✈ MKU302 ✈ 29-Apr-2013 ✈ PHJH / JHM - PHNL

Flight Track Log - Related Links

Times and Time Zones

All times are in EDT time to prevent confusion due to time zone crossing. See the MKU302 flight status page for this flight to view local times or setup timezone preferences in your user account.

Time Position Orientation Groundspeed Altitude Reporting Facility
EDT Latitude Longitude Course Direction KTS MPH feet Rate Location/Type
02:09PM 20.9333 -156.7500 248° West 160 184 3,200  Level Honolulu Center
02:10PM 20.9333 -156.8000 270° West 160 184 4,500 1,260 Climbing Honolulu Center
02:11PM 20.9333 -156.8500 270° West 160 184 5,800 1,200 Climbing Honolulu Center
02:12PM 20.9500 -156.9000 290° West 170 196 7,000 1,080 Climbing Honolulu Center
02:13PM 20.9500 -156.9500 270° West 170 196 8,000 480 Climbing Honolulu Center
02:14PM 20.9500 -157.0000 270° West 190 219 8,000  Level Honolulu Center
02:15PM 20.9333 -157.0667 255° West 200 230 8,000  Level Honolulu Center
02:16PM 20.9333 -157.1167 270° West 200 230 8,000  Level Honolulu Center
02:17PM 20.9333 -157.1833 270° West 210 242 8,000  Level Honolulu Center
02:18PM 20.9333 -157.2500 270° West 210 242 8,000  Level Honolulu Center
02:19PM 20.9167 -157.3167 255° West 210 242 8,100  Climbing Honolulu Center
02:20PM 20.9167 -157.3833 270° West 210 242 8,100  Level Honolulu Center
02:21PM 20.9167 -157.4333 270° West 210 242 8,100 -180 Level Honolulu Center
02:22PM 20.9333 -157.5000 285° West 210 242 7,800 -480 Descending Honolulu Center
02:23PM 20.9667 -157.5500 306° West 230 265 7,200 -600 Descending Honolulu Center
02:24PM 20.9833 -157.6167 285° West 240 276 6,600 -600 Descending Honolulu Center
02:25PM 21.0167 -157.6833 298° West 230 265 6,000 -660 Descending Honolulu Center
02:26PM 21.0500 -157.7500 298° West 230 265 5,300 -900 Descending Honolulu Center
02:28PM 21.0833 -157.8167 298° West 240 276 4,200 -1,320 Descending Honolulu Center
02:28PM 21.1167 -157.8667 306° West 240 276 2,700 -1,320 Descending Honolulu Center
02:29PM 21.1833 -157.9000 335° Northwest 260 299 1,600 -720 Descending Honolulu Center
02:31PM 21.2500 -157.9333 335° Northwest 230 265 1,300 -300 Descending Honolulu Center
02:32PM 21.3000 -157.9500 343° North 170 196 1,000 -300 Descending Honolulu Center
02:33PM 21.3167 -157.9167 North  Level FlightAware Approximate